createdAt,value
2022-11-10T00:01:08.095Z,7.96
2022-11-10T00:03:54.344Z,7.96
2022-11-10T00:06:45.081Z,7.97
2022-11-10T00:09:31.153Z,7.99
2022-11-10T00:12:17.792Z,8.01
2022-11-10T00:15:22.471Z,7.98
2022-11-10T00:18:08.685Z,7.99
2022-11-10T00:20:54.644Z,8.01
2022-11-10T00:23:40.848Z,8.00
2022-11-10T00:26:30.022Z,8.00
2022-11-10T00:29:16.121Z,8.02
2022-11-10T00:32:04.215Z,8.02
2022-11-10T00:34:49.989Z,8.02
2022-11-10T00:37:36.180Z,8.03
2022-11-10T00:40:22.063Z,8.06
2022-11-10T00:43:08.405Z,8.00
2022-11-10T00:45:57.643Z,7.98
2022-11-10T00:48:45.895Z,8.00
2022-11-10T00:51:34.866Z,8.01
2022-11-10T00:54:23.661Z,8.03
2022-11-10T00:57:12.714Z,7.99
2022-11-10T00:59:58.710Z,7.98
2022-11-10T01:02:44.916Z,7.99
2022-11-10T01:05:31.388Z,8.00
2022-11-10T01:08:17.287Z,8.03
2022-11-10T01:11:09.054Z,8.01
2022-11-10T01:13:58.418Z,8.00
2022-11-10T01:16:44.494Z,7.99
2022-11-10T01:19:33.985Z,8.02
2022-11-10T01:22:19.895Z,8.01
2022-11-10T01:25:06.485Z,8.02
2022-11-10T01:27:55.116Z,8.05
2022-11-10T01:30:41.172Z,8.02
2022-11-10T01:33:27.581Z,8.01
2022-11-10T01:36:13.662Z,8.01
2022-11-10T01:39:01.349Z,8.05
2022-11-10T01:41:47.291Z,8.02
2022-11-10T01:44:36.568Z,8.03
2022-11-10T01:47:22.527Z,8.04
2022-11-10T01:50:08.664Z,8.04
2022-11-10T01:52:56.560Z,7.96
2022-11-10T01:55:43.980Z,7.93
2022-11-10T01:58:33.500Z,7.91
2022-11-10T02:01:19.534Z,7.86
2022-11-10T02:04:07.979Z,7.88
2022-11-10T02:06:54.944Z,7.89
2022-11-10T02:09:41.263Z,7.90
2022-11-10T02:12:39.364Z,7.91
2022-11-10T02:15:45.435Z,7.89
2022-11-10T02:18:34.231Z,7.88
2022-11-10T02:21:23.812Z,7.89
2022-11-10T02:24:10.136Z,7.88
2022-11-10T02:26:56.921Z,7.85
2022-11-10T02:29:43.004Z,7.86
2022-11-10T02:32:31.376Z,7.87
2022-11-10T02:35:17.434Z,7.81
2022-11-10T02:38:03.735Z,7.84
2022-11-10T02:40:50.493Z,7.82
2022-11-10T02:43:38.026Z,7.81
2022-11-10T02:46:23.969Z,7.82
2022-11-10T02:49:12.720Z,7.78
2022-11-10T02:51:59.136Z,7.75
2022-11-10T02:54:45.129Z,7.72
2022-11-10T02:57:30.923Z,7.70
2022-11-10T03:00:17.656Z,7.70
2022-11-10T03:03:03.780Z,7.60
2022-11-10T03:05:49.722Z,7.61
2022-11-10T03:08:35.653Z,7.52
2022-11-10T03:11:29.328Z,7.52
2022-11-10T03:14:18.288Z,7.52
2022-11-10T03:17:04.149Z,7.54
2022-11-10T03:19:53.269Z,7.52
2022-11-10T03:22:39.065Z,7.48
2022-11-10T03:25:24.976Z,7.48
2022-11-10T03:28:11.731Z,7.46
2022-11-10T03:30:57.811Z,7.45
2022-11-10T03:33:44.152Z,7.46
2022-11-10T03:36:30.292Z,7.42
2022-11-10T03:39:16.208Z,7.41
2022-11-10T03:42:02.023Z,7.34
2022-11-10T03:44:48.062Z,7.35
2022-11-10T03:47:33.743Z,7.38
2022-11-10T03:50:19.935Z,7.42
2022-11-10T03:53:06.101Z,7.32
2022-11-10T03:55:52.199Z,7.35
2022-11-10T03:58:38.324Z,7.35
2022-11-10T04:01:27.327Z,7.35
2022-11-10T04:04:32.192Z,7.32
2022-11-10T04:07:36.441Z,7.31
2022-11-10T04:10:22.931Z,7.32
2022-11-10T04:13:26.926Z,7.28
2022-11-10T04:16:13.015Z,7.26
2022-11-10T04:18:59.468Z,7.20
2022-11-10T04:21:45.619Z,7.17
2022-11-10T04:24:31.755Z,7.19
2022-11-10T04:27:17.484Z,7.22
2022-11-10T04:30:03.300Z,7.16
2022-11-10T04:32:48.986Z,7.14
2022-11-10T04:35:35.188Z,7.17
2022-11-10T04:38:21.025Z,7.18
2022-11-10T04:41:10.231Z,7.10
2022-11-10T04:43:56.330Z,7.02
2022-11-10T04:46:44.463Z,6.95
2022-11-10T04:49:30.630Z,6.80
2022-11-10T04:52:16.622Z,6.89
2022-11-10T04:55:02.598Z,6.87
2022-11-10T04:57:48.749Z,6.58
2022-11-10T05:00:34.871Z,6.61
2022-11-10T05:03:21.337Z,6.55
2022-11-10T05:06:07.596Z,6.36
2022-11-10T05:08:53.637Z,6.35
2022-11-10T05:11:42.660Z,6.46
2022-11-10T05:14:28.612Z,6.53
2022-11-10T05:17:14.942Z,6.43
2022-11-10T05:20:01.260Z,6.35
2022-11-10T05:23:08.090Z,6.35
2022-11-10T05:25:54.272Z,6.31
2022-11-10T05:28:41.342Z,6.02
2022-11-10T05:31:27.002Z,6.02
2022-11-10T05:34:14.704Z,5.78
2022-11-10T05:37:00.817Z,5.60
2022-11-10T05:39:46.687Z,5.63
2022-11-10T05:42:32.710Z,5.97
2022-11-10T05:45:19.707Z,5.99
2022-11-10T05:48:06.196Z,5.89
2022-11-10T05:50:51.939Z,5.94
2022-11-10T05:53:38.520Z,5.93
2022-11-10T05:56:24.657Z,5.99
2022-11-10T05:59:10.717Z,5.73
2022-11-10T06:01:57.001Z,5.70
2022-11-10T06:04:43.044Z,5.77
2022-11-10T06:07:31.110Z,5.83
2022-11-10T06:10:20.293Z,6.29
2022-11-10T06:13:06.486Z,6.47
2022-11-10T06:15:52.400Z,6.26
2022-11-10T06:18:38.670Z,6.45
2022-11-10T06:21:24.754Z,6.41
2022-11-10T06:24:11.496Z,6.45
2022-11-10T06:27:00.408Z,6.50
2022-11-10T06:29:46.447Z,6.40
2022-11-10T06:32:33.823Z,6.26
2022-11-10T06:35:20.876Z,6.19
2022-11-10T06:38:07.843Z,6.58
2022-11-10T06:40:53.886Z,6.59
2022-11-10T06:43:40.831Z,6.87
2022-11-10T06:46:26.824Z,7.08
2022-11-10T06:49:13.203Z,7.54
2022-11-10T06:51:59.133Z,7.94
2022-11-10T06:54:45.389Z,8.14
2022-11-10T06:57:37.740Z,8.35
2022-11-10T07:00:24.579Z,8.67
2022-11-10T07:03:12.538Z,8.62
2022-11-10T07:05:58.838Z,8.41
2022-11-10T07:08:44.712Z,8.43
2022-11-10T07:11:30.762Z,8.47
2022-11-10T07:14:16.722Z,8.51
2022-11-10T07:17:02.777Z,8.42
2022-11-10T07:19:48.785Z,8.59
2022-11-10T07:22:35.134Z,8.18
2022-11-10T07:25:21.251Z,7.89
2022-11-10T07:28:08.873Z,8.06
2022-11-10T07:30:55.360Z,7.94
2022-11-10T07:33:41.617Z,7.86
2022-11-10T07:36:29.221Z,7.97
2022-11-10T07:39:15.451Z,7.73
2022-11-10T07:42:01.873Z,7.91
2022-11-10T07:44:47.688Z,8.17
2022-11-10T07:47:33.384Z,8.43
2022-11-10T07:50:19.750Z,8.38
2022-11-10T07:53:10.022Z,8.35
2022-11-10T07:55:58.104Z,8.29
2022-11-10T07:58:44.281Z,8.09
2022-11-10T08:01:30.116Z,8.15
2022-11-10T08:04:15.752Z,8.35
2022-11-10T08:07:02.223Z,8.12
2022-11-10T08:09:48.619Z,8.35
2022-11-10T08:12:34.651Z,8.50
2022-11-10T08:15:20.851Z,8.59
2022-11-10T08:18:18.016Z,8.92
2022-11-10T08:21:04.762Z,8.95
2022-11-10T08:23:50.487Z,9.58
2022-11-10T08:26:36.531Z,9.42
2022-11-10T08:29:22.523Z,9.48
2022-11-10T08:32:08.566Z,10.10
2022-11-10T08:34:54.794Z,10.37
2022-11-10T08:37:40.769Z,10.60
2022-11-10T08:40:35.972Z,10.56
2022-11-10T08:43:22.221Z,10.52
2022-11-10T08:46:08.473Z,10.02
2022-11-10T08:48:54.383Z,9.80
2022-11-10T08:51:40.418Z,9.44
2022-11-10T08:54:27.281Z,9.55
2022-11-10T08:57:13.561Z,9.36
2022-11-10T09:00:02.471Z,9.42
2022-11-10T09:02:48.960Z,9.39
2022-11-10T09:05:36.745Z,9.09
2022-11-10T09:08:22.993Z,9.08
2022-11-10T09:11:10.216Z,8.94
2022-11-10T09:13:56.628Z,9.14
2022-11-10T09:16:42.373Z,8.96
2022-11-10T09:19:28.280Z,8.81
2022-11-10T09:22:13.963Z,8.93
2022-11-10T09:24:59.841Z,9.01
2022-11-10T09:27:45.727Z,8.94
2022-11-10T09:30:32.066Z,8.89
2022-11-10T09:33:18.304Z,8.88
2022-11-10T09:36:04.374Z,8.83
2022-11-10T09:38:50.406Z,8.86
2022-11-10T09:41:40.222Z,9.01
2022-11-10T09:44:31.242Z,9.16
2022-11-10T09:47:42.344Z,9.00
2022-11-10T09:50:46.985Z,9.02
2022-11-10T09:53:37.796Z,9.16
2022-11-10T09:56:31.210Z,9.02
2022-11-10T09:59:22.539Z,9.24
2022-11-10T10:02:16.535Z,9.21
2022-11-10T10:05:11.857Z,9.25
2022-11-10T10:08:16.609Z,9.22
2022-11-10T10:11:12.069Z,9.52
2022-11-10T10:14:07.131Z,9.39
2022-11-10T10:16:56.048Z,9.50
2022-11-10T10:20:00.253Z,9.43
2022-11-10T10:22:58.484Z,9.26
2022-11-10T10:25:46.188Z,9.21
2022-11-10T10:28:38.136Z,9.31
2022-11-10T10:31:26.867Z,9.34
2022-11-10T10:34:15.412Z,9.47
2022-11-10T10:37:01.712Z,9.49
2022-11-10T10:39:49.333Z,9.40
2022-11-10T10:42:36.636Z,9.62
2022-11-10T10:45:26.943Z,9.82
2022-11-10T10:48:27.091Z,9.92
2022-11-10T10:51:27.833Z,9.79
2022-11-10T10:54:28.569Z,9.69
2022-11-10T10:57:25.371Z,10.16
2022-11-10T11:00:21.536Z,10.87
2022-11-10T11:03:26.060Z,10.99
2022-11-10T11:06:14.914Z,11.00
2022-11-10T11:09:08.197Z,10.47
2022-11-10T11:12:01.341Z,10.21
2022-11-10T11:14:49.143Z,9.82
2022-11-10T11:17:35.883Z,9.71
2022-11-10T11:20:26.971Z,9.42
2022-11-10T11:23:50.926Z,9.37
2022-11-10T11:26:51.961Z,9.78
2022-11-10T11:29:47.094Z,9.87
2022-11-10T11:33:02.921Z,10.08
2022-11-10T11:35:55.039Z,10.39
2022-11-10T11:38:44.570Z,10.82
2022-11-10T11:41:38.420Z,11.10
2022-11-10T11:44:32.773Z,11.31
2022-11-10T11:47:28.114Z,11.68
2022-11-10T11:50:37.747Z,11.51
2022-11-10T11:53:39.057Z,11.60
2022-11-10T11:56:27.102Z,11.55
2022-11-10T11:59:24.421Z,11.24
2022-11-10T12:02:35.280Z,11.41
2022-11-10T12:05:37.043Z,11.27
2022-11-10T12:08:44.212Z,11.00
2022-11-10T12:11:37.549Z,10.80
2022-11-10T12:14:33.008Z,10.54
2022-11-10T12:17:19.034Z,10.74
2022-11-10T12:20:08.742Z,10.96
2022-11-10T12:23:17.987Z,10.77
2022-11-10T12:26:22.683Z,10.74
2022-11-10T12:29:17.712Z,10.11
2022-11-10T12:32:25.153Z,9.78
2022-11-10T12:35:17.051Z,9.95
2022-11-10T12:38:13.896Z,9.87
2022-11-10T12:41:03.926Z,9.65
2022-11-10T12:43:52.722Z,9.49
2022-11-10T12:46:39.438Z,9.41
2022-11-10T12:49:28.478Z,9.31
2022-11-10T12:52:17.954Z,9.19
2022-11-10T12:55:07.278Z,9.03
2022-11-10T12:57:53.510Z,9.22
2022-11-10T13:00:43.937Z,8.85
2022-11-10T13:03:40.951Z,8.69
2022-11-10T13:06:27.052Z,8.80
2022-11-10T13:09:27.087Z,8.65
2022-11-10T13:12:17.103Z,8.61
2022-11-10T13:15:24.014Z,8.48
2022-11-10T13:18:10.745Z,8.43
2022-11-10T13:20:57.220Z,8.43
2022-11-10T13:23:43.239Z,8.33
2022-11-10T13:26:38.804Z,8.27
2022-11-10T13:29:32.196Z,8.35
2022-11-10T13:32:28.565Z,8.23
2022-11-10T13:35:29.629Z,8.25
2022-11-10T13:38:41.981Z,8.33
2022-11-10T13:41:28.506Z,8.16
2022-11-10T13:47:54.949Z,8.23
2022-11-10T13:50:50.217Z,8.11
2022-11-10T13:53:45.254Z,8.09
2022-11-10T13:56:36.755Z,8.11
2022-11-10T13:59:33.427Z,8.07
2022-11-10T14:02:31.885Z,8.08
2022-11-10T14:05:29.893Z,7.96
2022-11-10T14:08:21.741Z,7.95
2022-11-10T14:11:15.028Z,7.98
2022-11-10T14:14:22.579Z,8.05
2022-11-10T14:17:23.377Z,8.00
2022-11-10T14:20:27.874Z,7.93
2022-11-10T14:23:19.521Z,7.92
2022-11-10T14:26:15.499Z,7.93
2022-11-10T14:29:20.442Z,7.96
2022-11-10T14:32:26.943Z,8.02
2022-11-10T14:35:32.858Z,7.98
2022-11-10T14:38:21.120Z,7.91
2022-11-10T14:41:16.726Z,7.99
2022-11-10T14:44:13.678Z,7.93
2022-11-10T14:47:19.886Z,7.93
2022-11-10T14:50:25.655Z,7.96
2022-11-10T14:53:29.674Z,7.96
2022-11-10T14:56:19.994Z,7.97
2022-11-10T14:59:12.494Z,8.01
2022-11-10T15:02:00.936Z,8.02
2022-11-10T15:04:50.629Z,8.06
2022-11-10T15:07:36.738Z,8.14
2022-11-10T15:10:24.322Z,8.04
2022-11-10T15:13:13.097Z,7.98
2022-11-10T15:16:17.372Z,7.93
2022-11-10T15:19:22.164Z,7.97
2022-11-10T15:22:16.722Z,7.92
2022-11-10T15:25:13.650Z,7.84
2022-11-10T15:28:04.752Z,7.81
2022-11-10T15:30:51.998Z,7.80
2022-11-10T15:36:43.429Z,7.79
2022-11-10T15:39:30.548Z,7.70
2022-11-10T15:42:24.022Z,7.71
2022-11-10T15:45:12.762Z,7.76
2022-11-10T15:47:58.944Z,7.75
2022-11-10T15:50:49.996Z,7.71
2022-11-10T15:53:47.267Z,7.73
2022-11-10T15:56:33.013Z,7.64
2022-11-10T15:59:21.852Z,7.72
2022-11-10T16:02:19.384Z,7.68
2022-11-10T16:05:11.272Z,7.73
2022-11-10T16:07:57.180Z,7.60
2022-11-10T16:10:44.713Z,7.51
2022-11-10T16:13:32.341Z,7.52
2022-11-10T16:16:19.496Z,7.42
2022-11-10T16:19:05.560Z,7.48
2022-11-10T16:21:51.510Z,7.42
2022-11-10T16:24:38.071Z,7.41
2022-11-10T16:27:23.845Z,7.47
2022-11-10T16:30:13.144Z,7.31
2022-11-10T16:32:59.579Z,7.38
2022-11-10T16:35:52.454Z,7.36
2022-11-10T16:38:41.155Z,7.45
2022-11-10T16:41:27.305Z,7.42
2022-11-10T16:44:14.221Z,7.32
2022-11-10T16:47:00.236Z,7.42
2022-11-10T16:49:46.605Z,7.42
2022-11-10T16:52:33.077Z,7.38
2022-11-10T16:55:19.399Z,7.20
2022-11-10T16:58:05.785Z,7.41
2022-11-10T17:00:51.932Z,7.32
2022-11-10T17:03:40.926Z,7.36
2022-11-10T17:06:27.653Z,7.26
2022-11-10T17:09:17.929Z,7.16
2022-11-10T17:12:03.971Z,7.27
2022-11-10T17:14:50.446Z,7.21
2022-11-10T17:17:36.856Z,7.32
2022-11-10T17:20:33.039Z,7.33
2022-11-10T17:23:21.689Z,7.24
2022-11-10T17:26:17.597Z,7.38
2022-11-10T17:29:03.592Z,7.40
2022-11-10T17:31:53.251Z,7.20
2022-11-10T17:34:39.396Z,7.24
2022-11-10T17:37:25.540Z,7.30
2022-11-10T17:40:17.418Z,7.27
2022-11-10T17:43:04.236Z,7.28
2022-11-10T17:45:53.124Z,7.29
2022-11-10T17:48:38.943Z,7.31
2022-11-10T17:51:24.988Z,7.29
2022-11-10T17:54:13.323Z,7.34
2022-11-10T17:57:02.281Z,7.43
2022-11-10T17:59:55.205Z,7.39
2022-11-10T18:02:41.803Z,7.34
2022-11-10T18:05:28.380Z,7.40
2022-11-10T18:08:15.547Z,7.32
2022-11-10T18:11:01.721Z,7.39
2022-11-10T18:13:47.621Z,7.33
2022-11-10T18:16:33.593Z,7.37
2022-11-10T18:19:19.464Z,7.41
2022-11-10T18:22:05.534Z,7.43
2022-11-10T18:24:51.159Z,7.50
2022-11-10T18:27:37.457Z,7.35
2022-11-10T18:30:23.210Z,7.41
2022-11-10T18:33:10.244Z,7.38
2022-11-10T18:35:58.985Z,7.39
2022-11-10T18:38:45.060Z,7.47
2022-11-10T18:41:50.171Z,7.49
2022-11-10T18:44:37.333Z,7.47
2022-11-10T18:47:23.534Z,7.44
2022-11-10T18:50:12.637Z,7.46
2022-11-10T18:52:58.686Z,7.57
2022-11-10T18:55:53.292Z,7.48
2022-11-10T18:58:39.225Z,7.48
2022-11-10T19:01:25.697Z,7.50
2022-11-10T19:04:12.702Z,7.47
2022-11-10T19:06:58.770Z,7.54
2022-11-10T19:09:45.283Z,7.55
2022-11-10T19:12:34.471Z,7.58
2022-11-10T19:15:20.416Z,7.56
2022-11-10T19:18:06.414Z,7.60
2022-11-10T19:20:52.459Z,7.55
2022-11-10T19:23:38.469Z,7.59
2022-11-10T19:26:25.713Z,7.63
2022-11-10T19:29:11.890Z,7.52
2022-11-10T19:32:00.659Z,7.56
2022-11-10T19:34:46.916Z,7.63
2022-11-10T19:37:35.853Z,7.66
2022-11-10T19:40:22.235Z,7.56
2022-11-10T19:43:08.597Z,7.48
2022-11-10T19:45:54.534Z,7.57
2022-11-10T19:48:41.274Z,7.57
2022-11-10T19:51:29.208Z,7.63
2022-11-10T19:54:15.235Z,7.60
2022-11-10T19:57:06.659Z,7.60
2022-11-10T19:59:52.761Z,7.64
2022-11-10T20:02:44.262Z,7.59
2022-11-10T20:05:34.506Z,7.62
2022-11-10T20:08:20.338Z,7.63
2022-11-10T20:11:07.680Z,7.60
2022-11-10T20:13:57.171Z,7.64
2022-11-10T20:16:43.193Z,7.65
2022-11-10T20:19:41.137Z,7.59
2022-11-10T20:22:31.037Z,7.63
2022-11-10T20:25:19.680Z,7.63
2022-11-10T20:28:08.824Z,7.59
2022-11-10T20:30:56.382Z,7.61
2022-11-10T20:33:42.690Z,7.61
2022-11-10T20:36:30.489Z,7.60
2022-11-10T20:39:18.056Z,7.55
2022-11-10T20:42:07.387Z,7.56
2022-11-10T20:44:53.865Z,7.53
2022-11-10T20:47:39.961Z,7.52
2022-11-10T20:50:26.402Z,7.50
2022-11-10T20:53:13.016Z,7.54
2022-11-10T20:56:02.985Z,7.51
2022-11-10T20:58:49.695Z,7.52
2022-11-10T21:01:37.920Z,7.53
2022-11-10T21:04:24.303Z,7.53
2022-11-10T21:07:10.514Z,7.51
2022-11-10T21:09:56.572Z,7.55
2022-11-10T21:12:52.270Z,7.56
2022-11-10T21:15:39.613Z,7.51
2022-11-10T21:18:27.355Z,7.48
2022-11-10T21:21:21.254Z,7.47
2022-11-10T21:24:07.998Z,7.47
2022-11-10T21:29:58.933Z,7.43
2022-11-10T21:32:44.763Z,7.50
2022-11-10T21:35:35.308Z,7.46
2022-11-10T21:38:23.731Z,7.45
2022-11-10T21:41:10.023Z,7.45
2022-11-10T21:43:55.825Z,7.47
2022-11-10T21:46:41.575Z,7.48
2022-11-10T21:49:27.431Z,7.48
2022-11-10T21:52:14.531Z,7.39
2022-11-10T21:55:00.400Z,7.42
2022-11-10T21:57:46.499Z,7.41
2022-11-10T22:00:33.090Z,7.44
2022-11-10T22:03:19.140Z,7.39
2022-11-10T22:06:06.123Z,7.40
2022-11-10T22:08:52.333Z,7.33
2022-11-10T22:11:56.695Z,7.36
2022-11-10T22:15:01.525Z,7.40
2022-11-10T22:18:05.877Z,7.36
2022-11-10T22:20:52.100Z,7.30
2022-11-10T22:23:59.762Z,7.39
2022-11-10T22:26:45.945Z,7.38
2022-11-10T22:29:32.926Z,7.39
2022-11-10T22:32:19.178Z,7.36
2022-11-10T22:35:05.329Z,7.37
2022-11-10T22:37:52.091Z,7.39
2022-11-10T22:40:56.634Z,7.44
2022-11-10T22:44:01.084Z,7.34
2022-11-10T22:46:48.546Z,7.36
2022-11-10T22:49:34.683Z,7.35
2022-11-10T22:52:20.747Z,7.35
2022-11-10T22:55:06.606Z,7.36
2022-11-10T22:57:53.247Z,7.28
2022-11-10T23:00:39.309Z,7.32
2022-11-10T23:03:25.924Z,7.32
2022-11-10T23:06:12.423Z,7.30
2022-11-10T23:08:58.905Z,7.32
2022-11-10T23:11:44.761Z,7.36
2022-11-10T23:14:31.298Z,7.35
2022-11-10T23:17:17.343Z,7.37
2022-11-10T23:20:04.288Z,7.35
2022-11-10T23:22:50.498Z,7.37
2022-11-10T23:25:36.442Z,7.37
2022-11-10T23:28:26.208Z,7.38
2022-11-10T23:31:14.528Z,7.39
2022-11-10T23:34:03.063Z,7.32
2022-11-10T23:36:48.947Z,7.32
2022-11-10T23:39:35.408Z,7.32
2022-11-10T23:42:21.843Z,7.30
2022-11-10T23:45:08.736Z,7.24
2022-11-10T23:47:54.899Z,7.25
2022-11-10T23:50:41.234Z,7.27
2022-11-10T23:53:27.533Z,7.25
2022-11-10T23:56:14.213Z,7.29
2022-11-10T23:59:01.106Z,7.25
